createdAt,value
2019-02-05T00:00:18.519Z,82.16
2019-02-05T00:02:44.655Z,82.12
2019-02-05T00:05:10.695Z,82.15
2019-02-05T00:07:36.761Z,82.10
2019-02-05T00:10:06.366Z,82.16
2019-02-05T00:12:32.465Z,81.95
2019-02-05T00:14:58.321Z,81.69
2019-02-05T00:17:24.161Z,81.69
2019-02-05T00:19:49.990Z,81.68
2019-02-05T00:22:16.107Z,81.62
2019-02-05T00:24:42.510Z,81.22
2019-02-05T00:27:08.348Z,81.46
2019-02-05T00:29:34.184Z,81.13
2019-02-05T00:32:00.024Z,81.27
2019-02-05T00:34:25.849Z,81.34
2019-02-05T00:36:51.674Z,81.12
2019-02-05T00:39:17.526Z,81.61
2019-02-05T00:41:43.375Z,81.49
2019-02-05T00:44:09.792Z,81.51
2019-02-05T00:46:35.924Z,81.91
2019-02-05T00:49:02.059Z,82.58
2019-02-05T00:51:28.149Z,82.58
2019-02-05T00:53:54.280Z,82.76
2019-02-05T00:56:20.088Z,82.57
2019-02-05T00:58:45.900Z,83.37
2019-02-05T01:01:11.961Z,83.21
2019-02-05T01:03:37.788Z,82.61
2019-02-05T01:06:04.017Z,82.39
2019-02-05T01:08:29.967Z,82.27
2019-02-05T01:10:56.164Z,82.65
2019-02-05T01:13:21.998Z,82.59
2019-02-05T01:15:47.846Z,82.62
2019-02-05T01:18:13.955Z,82.15
2019-02-05T01:20:39.806Z,81.97
2019-02-05T01:23:05.628Z,81.67
2019-02-05T01:25:32.122Z,81.65
2019-02-05T01:27:58.298Z,81.61
2019-02-05T01:30:26.051Z,81.94
2019-02-05T01:32:51.907Z,81.84
2019-02-05T01:35:19.722Z,81.84
2019-02-05T01:37:45.554Z,82.18
2019-02-05T01:40:17.375Z,82.01
2019-02-05T01:42:43.413Z,82.40
2019-02-05T01:45:12.135Z,82.73
2019-02-05T01:47:38.068Z,82.38
2019-02-05T01:50:06.912Z,82.28
2019-02-05T01:52:32.871Z,82.37
2019-02-05T01:54:58.695Z,82.94
2019-02-05T01:57:24.527Z,83.17
2019-02-05T01:59:50.457Z,82.98
2019-02-05T02:02:16.376Z,82.45
2019-02-05T02:04:42.488Z,81.86
2019-02-05T02:07:08.540Z,82.05
2019-02-05T02:09:34.674Z,82.09
2019-02-05T02:12:00.875Z,82.29
2019-02-05T02:14:27.033Z,82.23
2019-02-05T02:16:52.876Z,81.91
2019-02-05T02:19:18.798Z,81.80
2019-02-05T02:21:45.185Z,82.04
2019-02-05T02:24:11.353Z,82.45
2019-02-05T02:26:37.153Z,82.42
2019-02-05T02:29:03.466Z,82.51
2019-02-05T02:31:29.308Z,82.56
2019-02-05T02:33:58.552Z,82.76
2019-02-05T02:36:24.645Z,82.70
2019-02-05T02:38:53.293Z,82.81
2019-02-05T02:41:19.325Z,82.94
2019-02-05T02:43:48.181Z,82.81
2019-02-05T02:46:14.020Z,82.57
2019-02-05T02:48:39.883Z,82.40
2019-02-05T02:51:06.040Z,82.72
2019-02-05T02:53:31.858Z,83.49
2019-02-05T02:56:00.754Z,83.53
2019-02-05T02:58:27.104Z,83.43
2019-02-05T03:00:55.737Z,83.23
2019-02-05T03:03:21.574Z,83.35
2019-02-05T03:05:50.247Z,84.61
2019-02-05T03:08:16.100Z,85.34
2019-02-05T03:10:45.301Z,85.59
2019-02-05T03:13:11.126Z,86.01
2019-02-05T03:15:40.427Z,85.76
2019-02-05T03:18:06.273Z,85.34
2019-02-05T03:20:32.314Z,84.99
2019-02-05T03:22:58.128Z,84.59
2019-02-05T03:25:24.562Z,84.53
2019-02-05T03:27:53.534Z,84.57
2019-02-05T03:30:20.574Z,84.46
2019-02-05T03:32:46.501Z,84.75
2019-02-05T03:35:13.346Z,84.70
2019-02-05T03:37:39.713Z,84.85
2019-02-05T03:40:15.197Z,84.70
2019-02-05T03:42:41.007Z,84.53
2019-02-05T03:45:07.015Z,84.33
2019-02-05T03:47:32.871Z,84.52
2019-02-05T03:49:58.831Z,84.64
2019-02-05T03:52:25.872Z,84.72
2019-02-05T03:55:16.377Z,84.54
2019-02-05T03:57:51.531Z,84.61
2019-02-05T04:00:41.935Z,84.83
2019-02-05T04:03:40.412Z,84.91
2019-02-05T04:06:40.169Z,84.79
2019-02-05T04:09:16.460Z,84.54
2019-02-05T04:11:54.673Z,84.46
2019-02-05T04:14:56.730Z,84.61
2019-02-05T04:17:49.191Z,84.20
2019-02-05T04:20:52.644Z,84.31
2019-02-05T04:23:25.413Z,84.54
2019-02-05T04:26:06.977Z,84.69
2019-02-05T04:28:56.937Z,84.89
2019-02-05T04:32:02.918Z,84.83
2019-02-05T04:34:41.541Z,84.86
2019-02-05T04:37:28.282Z,84.72
2019-02-05T04:40:19.144Z,84.33
2019-02-05T04:42:54.893Z,84.41
2019-02-05T04:45:44.387Z,84.87
2019-02-05T04:48:31.336Z,85.13
2019-02-05T04:51:31.079Z,85.01
2019-02-05T04:54:16.386Z,85.32
2019-02-05T04:56:55.268Z,85.55
2019-02-05T04:59:31.045Z,84.85
2019-02-05T05:02:28.307Z,85.24
2019-02-05T05:05:19.747Z,85.16
2019-02-05T05:07:49.656Z,84.97
2019-02-05T05:10:15.481Z,85.28
2019-02-05T05:12:41.312Z,85.34
2019-02-05T05:15:08.536Z,85.12
2019-02-05T05:17:34.607Z,85.18
2019-02-05T05:20:00.812Z,85.55
2019-02-05T05:22:27.898Z,86.01
2019-02-05T05:24:54.023Z,85.94
2019-02-05T05:27:20.629Z,86.17
2019-02-05T05:29:46.754Z,86.14
2019-02-05T05:32:12.962Z,86.12
2019-02-05T05:34:39.157Z,86.27
2019-02-05T05:37:04.792Z,85.93
2019-02-05T05:39:30.593Z,85.76
2019-02-05T05:41:56.471Z,85.95
2019-02-05T05:44:22.283Z,85.81
2019-02-05T05:46:48.137Z,85.70
2019-02-05T05:49:14.000Z,85.47
2019-02-05T05:51:40.178Z,85.46
2019-02-05T05:54:06.241Z,85.84
2019-02-05T05:56:32.068Z,85.79
2019-02-05T05:58:58.209Z,85.65
2019-02-05T06:01:24.022Z,85.57
2019-02-05T06:03:49.846Z,85.47
2019-02-05T06:06:15.977Z,85.39
2019-02-05T06:08:41.822Z,85.19
2019-02-05T06:11:07.687Z,85.05
2019-02-05T06:13:33.971Z,85.22
2019-02-05T06:15:59.902Z,84.96
2019-02-05T06:18:25.778Z,85.06
2019-02-05T06:20:51.599Z,84.72
2019-02-05T06:23:17.433Z,85.15
2019-02-05T06:25:43.560Z,85.64
2019-02-05T06:28:09.419Z,86.11
2019-02-05T06:30:35.260Z,86.40
2019-02-05T06:33:01.387Z,86.26
2019-02-05T06:35:27.424Z,86.21
2019-02-05T06:37:53.555Z,86.03
2019-02-05T06:40:20.435Z,86.01
2019-02-05T06:42:46.278Z,85.62
2019-02-05T06:45:13.694Z,85.61
2019-02-05T06:47:39.995Z,85.38
2019-02-05T06:50:08.718Z,85.15
2019-02-05T06:52:34.529Z,85.37
2019-02-05T06:55:00.679Z,85.56
2019-02-05T06:57:26.889Z,85.61
2019-02-05T06:59:52.727Z,85.14
2019-02-05T07:02:18.924Z,85.19
2019-02-05T07:04:44.769Z,85.48
2019-02-05T07:07:10.585Z,85.49
2019-02-05T07:09:36.724Z,85.11
2019-02-05T07:12:05.698Z,84.93
2019-02-05T07:14:31.519Z,84.76
2019-02-05T07:17:00.411Z,84.73
2019-02-05T07:19:26.516Z,82.88
2019-02-05T07:21:55.406Z,79.65
2019-02-05T07:24:21.660Z,76.52
2019-02-05T07:26:47.794Z,74.54
2019-02-05T07:29:13.832Z,72.85
2019-02-05T07:31:39.789Z,70.19
2019-02-05T07:34:05.786Z,67.44
2019-02-05T07:36:31.642Z,66.49
2019-02-05T07:39:00.733Z,64.35
2019-02-05T07:41:26.898Z,61.95
2019-02-05T07:43:55.813Z,61.66
2019-02-05T07:46:21.651Z,59.99
2019-02-05T07:48:50.562Z,58.75
2019-02-05T07:51:16.386Z,56.83
2019-02-05T07:53:44.579Z,53.88
2019-02-05T07:56:12.902Z,53.88
2019-02-05T07:58:39.658Z,51.58
2019-02-05T08:01:05.880Z,51.09
2019-02-05T08:03:32.010Z,51.59
2019-02-05T08:05:58.108Z,49.91
2019-02-05T08:08:24.407Z,48.87
2019-02-05T08:10:53.569Z,49.60
2019-02-05T08:13:19.663Z,48.72
2019-02-05T08:15:48.314Z,46.50
2019-02-05T08:18:14.159Z,46.03
2019-02-05T08:20:42.801Z,45.96
2019-02-05T08:23:08.866Z,43.80
2019-02-05T08:25:37.759Z,42.13
2019-02-05T08:28:04.179Z,41.90
2019-02-05T08:30:56.277Z,41.22
2019-02-05T08:33:22.089Z,40.23
2019-02-05T08:35:47.928Z,39.57
2019-02-05T08:38:13.854Z,40.34
2019-02-05T08:40:40.193Z,40.78
2019-02-05T08:43:06.237Z,39.90
2019-02-05T08:45:33.947Z,38.73
2019-02-05T08:48:00.037Z,38.20
2019-02-05T08:50:27.603Z,38.00
2019-02-05T08:52:53.984Z,36.72
2019-02-05T08:55:20.008Z,37.34
2019-02-05T08:57:46.961Z,37.87
2019-02-05T09:00:21.844Z,38.62
2019-02-05T09:02:48.510Z,38.23
2019-02-05T09:05:14.846Z,38.87
2019-02-05T09:07:40.763Z,38.46
2019-02-05T09:10:10.641Z,38.54
2019-02-05T09:12:36.589Z,39.36
2019-02-05T09:15:05.732Z,39.38
2019-02-05T09:17:31.567Z,38.65
2019-02-05T09:19:57.399Z,37.73
2019-02-05T09:22:23.527Z,36.71
2019-02-05T09:24:49.346Z,35.03
2019-02-05T09:27:15.593Z,34.69
2019-02-05T09:29:41.394Z,34.89
2019-02-05T09:32:07.495Z,36.41
2019-02-05T09:34:33.334Z,35.84
2019-02-05T09:36:59.175Z,35.71
2019-02-05T09:39:24.981Z,34.89
2019-02-05T09:41:50.978Z,36.06
2019-02-05T09:44:16.860Z,34.72
2019-02-05T09:46:43.009Z,36.14
2019-02-05T09:49:09.199Z,36.68
2019-02-05T09:51:35.335Z,37.62
2019-02-05T09:54:01.180Z,37.29
2019-02-05T09:56:27.106Z,37.52
2019-02-05T09:58:53.232Z,37.07
2019-02-05T10:01:19.025Z,36.76
2019-02-05T10:03:44.894Z,36.30
2019-02-05T10:06:10.726Z,36.98
2019-02-05T10:08:36.555Z,38.44
2019-02-05T10:11:02.797Z,37.18
2019-02-05T10:13:28.882Z,36.55
2019-02-05T10:15:54.710Z,37.03
2019-02-05T10:18:20.516Z,38.45
2019-02-05T10:20:46.817Z,38.11
2019-02-05T10:23:12.758Z,38.54
2019-02-05T10:25:41.599Z,36.91
2019-02-05T10:28:07.522Z,37.00
2019-02-05T10:30:36.452Z,37.24
2019-02-05T10:33:03.809Z,37.13
2019-02-05T10:35:29.732Z,37.19
2019-02-05T10:37:55.695Z,35.38
2019-02-05T10:40:23.548Z,35.53
2019-02-05T10:42:49.578Z,35.25
2019-02-05T10:45:18.126Z,35.55
2019-02-05T10:47:43.983Z,34.99
2019-02-05T10:50:12.706Z,36.16
2019-02-05T10:52:38.950Z,36.58
2019-02-05T10:55:08.001Z,37.38
2019-02-05T10:57:33.929Z,36.54
2019-02-05T11:00:08.478Z,36.45
2019-02-05T11:02:27.796Z,37.18
2019-02-05T11:04:53.643Z,38.15
2019-02-05T11:07:19.490Z,38.41
2019-02-05T11:09:45.598Z,38.57
2019-02-05T11:12:11.713Z,38.60
2019-02-05T11:14:37.747Z,38.12
2019-02-05T11:17:03.891Z,37.57
2019-02-05T11:19:34.273Z,36.66
2019-02-05T11:22:00.376Z,35.82
2019-02-05T11:24:29.143Z,36.31
2019-02-05T11:26:55.208Z,36.36
2019-02-05T11:29:24.249Z,37.62
2019-02-05T11:31:50.123Z,37.17
2019-02-05T11:34:19.048Z,36.57
2019-02-05T11:36:44.965Z,37.22
2019-02-05T11:39:14.455Z,36.54
2019-02-05T11:41:40.281Z,36.43
2019-02-05T11:44:06.109Z,36.76
2019-02-05T11:46:32.208Z,36.97
2019-02-05T11:48:58.343Z,37.39
2019-02-05T11:51:24.195Z,36.20
2019-02-05T11:53:50.283Z,36.05
2019-02-05T11:56:19.088Z,36.26
2019-02-05T11:58:44.950Z,36.56
2019-02-05T12:01:14.369Z,35.84
2019-02-05T12:03:40.586Z,37.03
2019-02-05T12:06:09.346Z,36.86
2019-02-05T12:08:35.286Z,36.83
2019-02-05T12:11:04.847Z,36.65
2019-02-05T12:13:30.721Z,36.96
2019-02-05T12:15:57.083Z,36.70
2019-02-05T12:18:23.222Z,36.74
2019-02-05T12:20:49.096Z,36.25
2019-02-05T12:23:15.522Z,37.51
2019-02-05T12:25:41.386Z,37.14
2019-02-05T12:28:08.603Z,38.04
2019-02-05T12:30:45.035Z,36.47
2019-02-05T12:33:07.088Z,37.10
2019-02-05T12:35:33.208Z,37.58
2019-02-05T12:37:59.579Z,37.27
2019-02-05T12:40:25.784Z,36.80
2019-02-05T12:42:54.552Z,36.86
2019-02-05T12:45:22.964Z,37.83
2019-02-05T12:47:48.932Z,36.67
2019-02-05T12:50:17.635Z,36.97
2019-02-05T12:52:43.600Z,36.58
2019-02-05T12:55:14.089Z,36.25
2019-02-05T12:57:38.289Z,36.21
2019-02-05T13:00:32.037Z,36.36
2019-02-05T13:02:57.994Z,37.22
2019-02-05T13:05:24.319Z,37.07
2019-02-05T13:07:50.441Z,37.45
2019-02-05T13:10:22.969Z,37.48
2019-02-05T13:12:49.055Z,37.07
2019-02-05T13:15:15.159Z,37.00
2019-02-05T13:17:41.353Z,37.21
2019-02-05T13:20:11.049Z,36.58
2019-02-05T13:22:37.304Z,36.04
2019-02-05T13:25:06.960Z,35.85
2019-02-05T13:27:33.117Z,35.42
2019-02-05T13:29:58.967Z,35.00
2019-02-05T13:32:24.864Z,35.49
2019-02-05T13:34:51.005Z,36.68
2019-02-05T13:37:16.865Z,36.66
2019-02-05T13:39:42.685Z,36.70
2019-02-05T13:42:08.862Z,36.90
2019-02-05T13:44:34.801Z,36.39
2019-02-05T13:47:01.151Z,36.25
2019-02-05T13:49:27.380Z,36.43
2019-02-05T13:51:53.219Z,36.25
2019-02-05T13:54:19.341Z,36.51
2019-02-05T13:56:45.206Z,36.83
2019-02-05T13:59:11.018Z,37.16
2019-02-05T14:01:36.852Z,37.49
2019-02-05T14:04:02.901Z,33.91
2019-02-05T14:06:29.195Z,34.86
2019-02-05T14:08:55.316Z,35.32
2019-02-05T14:11:21.501Z,36.66
2019-02-05T14:13:47.333Z,36.49
2019-02-05T14:16:13.175Z,36.50
2019-02-05T14:18:39.259Z,35.85
2019-02-05T14:21:05.113Z,35.65
2019-02-05T14:23:30.948Z,35.55
2019-02-05T14:25:59.586Z,35.76
2019-02-05T14:28:24.783Z,35.31
2019-02-05T14:30:51.918Z,35.84
2019-02-05T14:33:17.965Z,36.03
2019-02-05T14:35:43.990Z,36.69
2019-02-05T14:38:10.035Z,37.71
2019-02-05T14:40:35.852Z,38.14
2019-02-05T14:43:01.695Z,37.17
2019-02-05T14:45:27.680Z,34.69
2019-02-05T14:47:53.483Z,34.69
2019-02-05T14:50:27.514Z,35.36
2019-02-05T14:52:53.811Z,36.39
2019-02-05T14:55:19.657Z,35.37
2019-02-05T14:57:45.877Z,34.91
2019-02-05T15:00:15.555Z,34.60
2019-02-05T15:02:41.666Z,34.39
2019-02-05T15:05:09.333Z,34.87
2019-02-05T15:07:35.179Z,35.41
2019-02-05T15:10:01.296Z,34.44
2019-02-05T15:12:27.513Z,34.61
2019-02-05T15:14:53.360Z,33.64
2019-02-05T15:17:19.196Z,34.22
2019-02-05T15:19:45.045Z,34.05
2019-02-05T15:22:10.872Z,35.01
2019-02-05T15:24:38.863Z,35.91
2019-02-05T15:27:04.645Z,35.53
2019-02-05T15:29:30.503Z,35.28
2019-02-05T15:31:56.317Z,35.81
2019-02-05T15:34:22.515Z,35.96
2019-02-05T15:36:51.283Z,35.25
2019-02-05T15:39:17.401Z,36.52
2019-02-05T15:41:44.609Z,36.05
2019-02-05T15:44:10.924Z,34.57
2019-02-05T15:46:39.856Z,35.96
2019-02-05T15:49:05.958Z,37.94
2019-02-05T15:51:34.848Z,36.51
2019-02-05T15:54:01.042Z,37.77
2019-02-05T15:56:29.893Z,36.12
2019-02-05T15:58:55.973Z,38.43
2019-02-05T16:01:22.520Z,39.11
2019-02-05T16:03:48.568Z,40.50
2019-02-05T16:06:14.332Z,41.96
2019-02-05T16:08:40.174Z,42.33
2019-02-05T16:11:06.191Z,43.11
2019-02-05T16:13:36.731Z,42.51
2019-02-05T16:16:03.060Z,42.61
2019-02-05T16:18:32.092Z,44.16
2019-02-05T16:20:58.594Z,44.86
2019-02-05T16:23:24.430Z,45.13
2019-02-05T16:25:50.569Z,45.67
2019-02-05T16:28:19.480Z,47.83
2019-02-05T16:30:45.581Z,48.47
2019-02-05T16:33:17.755Z,48.36
2019-02-05T16:35:43.583Z,49.83
2019-02-05T16:38:09.430Z,51.55
2019-02-05T16:40:38.461Z,50.87
2019-02-05T16:43:04.737Z,51.30
2019-02-05T16:45:30.664Z,52.18
2019-02-05T16:47:56.621Z,54.13
2019-02-05T16:50:34.516Z,55.88
2019-02-05T16:53:00.446Z,57.55
2019-02-05T16:55:26.942Z,58.51
2019-02-05T16:57:52.880Z,59.26
2019-02-05T17:00:25.500Z,59.16
2019-02-05T17:02:51.445Z,59.26
2019-02-05T17:05:19.254Z,59.39
2019-02-05T17:07:45.347Z,58.27
2019-02-05T17:10:21.375Z,57.72
2019-02-05T17:12:47.220Z,58.39
2019-02-05T17:15:15.234Z,58.59
2019-02-05T17:17:41.536Z,58.39
2019-02-05T17:20:10.954Z,58.99
2019-02-05T17:22:37.586Z,59.46
2019-02-05T17:25:06.831Z,59.64
2019-02-05T17:27:32.943Z,59.73
2019-02-05T17:29:59.508Z,60.33
2019-02-05T17:32:25.363Z,61.13
2019-02-05T17:34:51.167Z,60.73
2019-02-05T17:37:17.009Z,61.11
2019-02-05T17:39:42.801Z,60.44
2019-02-05T17:42:08.725Z,60.92
2019-02-05T17:44:34.543Z,61.75
2019-02-05T17:47:00.684Z,62.84
2019-02-05T17:49:26.521Z,63.17
2019-02-05T17:51:52.446Z,62.98
2019-02-05T17:54:18.279Z,63.32
2019-02-05T17:56:44.164Z,63.73
2019-02-05T17:59:09.994Z,63.98
2019-02-05T18:01:35.948Z,64.19
2019-02-05T18:04:01.774Z,64.89
2019-02-05T18:06:27.919Z,64.89
2019-02-05T18:08:53.738Z,65.04
2019-02-05T18:11:20.011Z,65.45
2019-02-05T18:13:45.774Z,65.80
2019-02-05T18:16:11.758Z,66.13
2019-02-05T18:18:37.606Z,65.68
2019-02-05T18:21:03.790Z,65.78
2019-02-05T18:23:29.949Z,65.69
2019-02-05T18:25:55.762Z,66.12
2019-02-05T18:28:21.615Z,67.42
2019-02-05T18:30:47.693Z,67.84
2019-02-05T18:33:13.744Z,68.27
2019-02-05T18:35:42.998Z,68.80
2019-02-05T18:38:35.007Z,69.88
2019-02-05T18:41:00.849Z,70.08
2019-02-05T18:43:26.668Z,69.92
2019-02-05T18:45:52.521Z,69.79
2019-02-05T18:48:18.368Z,70.03
2019-02-05T18:50:44.197Z,70.10
2019-02-05T18:53:11.863Z,70.29
2019-02-05T18:55:40.752Z,70.14
2019-02-05T18:58:09.550Z,70.39
2019-02-05T19:00:38.712Z,70.75
2019-02-05T19:03:14.798Z,71.05
2019-02-05T19:05:32.629Z,71.63
2019-02-05T19:07:58.466Z,72.13
2019-02-05T19:10:27.205Z,71.88
2019-02-05T19:12:53.024Z,71.85
2019-02-05T19:15:21.972Z,71.76
2019-02-05T19:17:47.785Z,71.57
2019-02-05T19:20:15.438Z,72.21
2019-02-05T19:22:41.958Z,72.21
2019-02-05T19:25:09.999Z,71.49
2019-02-05T19:27:35.866Z,72.36
2019-02-05T19:30:04.407Z,72.91
2019-02-05T19:32:30.314Z,73.43
2019-02-05T19:34:56.521Z,73.93
2019-02-05T19:37:22.619Z,73.75
2019-02-05T19:39:49.147Z,73.61
2019-02-05T19:42:14.981Z,73.50
2019-02-05T19:44:42.859Z,73.49
2019-02-05T19:47:08.849Z,74.40
2019-02-05T19:49:34.889Z,74.56
2019-02-05T19:52:01.012Z,74.42
2019-02-05T19:54:26.846Z,74.54
2019-02-05T19:56:52.758Z,74.44
2019-02-05T19:59:18.922Z,74.39
2019-02-05T20:01:44.832Z,73.98
2019-02-05T20:04:11.096Z,73.88
2019-02-05T20:06:37.333Z,73.88
2019-02-05T20:09:07.274Z,73.60
2019-02-05T20:11:33.113Z,74.23
2019-02-05T20:13:59.045Z,74.12
2019-02-05T20:16:24.875Z,74.77
2019-02-05T20:18:50.781Z,74.75
2019-02-05T20:21:16.638Z,74.84
2019-02-05T20:23:42.439Z,74.78
2019-02-05T20:26:08.577Z,74.89
2019-02-05T20:28:34.789Z,75.04
2019-02-05T20:31:00.620Z,75.43
2019-02-05T20:33:26.720Z,75.43
2019-02-05T20:35:52.582Z,76.75
2019-02-05T20:38:18.712Z,77.09
2019-02-05T20:40:44.539Z,77.17
2019-02-05T20:43:10.770Z,76.96
2019-02-05T20:45:36.590Z,76.62
2019-02-05T20:48:03.695Z,76.67
2019-02-05T20:50:32.308Z,77.00
2019-02-05T20:52:58.432Z,77.79
2019-02-05T20:55:24.481Z,77.25
2019-02-05T20:57:50.394Z,77.60
2019-02-05T21:00:22.182Z,77.50
2019-02-05T21:02:48.528Z,77.29
2019-02-05T21:05:16.554Z,76.84
2019-02-05T21:07:42.499Z,77.44
2019-02-05T21:10:12.052Z,77.89
2019-02-05T21:12:37.884Z,77.89
2019-02-05T21:15:09.735Z,77.91
2019-02-05T21:17:35.572Z,77.96
2019-02-05T21:20:02.052Z,77.65
2019-02-05T21:22:29.263Z,77.68
2019-02-05T21:24:55.186Z,78.15
2019-02-05T21:27:21.057Z,78.53
2019-02-05T21:29:46.898Z,78.14
2019-02-05T21:32:12.923Z,78.37
2019-02-05T21:34:38.777Z,77.95
2019-02-05T21:37:04.613Z,77.41
2019-02-05T21:39:30.725Z,77.66
2019-02-05T21:41:56.865Z,77.89
2019-02-05T21:44:22.728Z,77.88
2019-02-05T21:46:48.844Z,77.57
2019-02-05T21:49:19.579Z,77.88
2019-02-05T21:51:45.942Z,78.39
2019-02-05T21:54:14.550Z,78.35
2019-02-05T21:56:40.385Z,78.70
2019-02-05T21:59:09.254Z,78.58
2019-02-05T22:01:35.225Z,78.49
2019-02-05T22:04:04.035Z,79.08
2019-02-05T22:06:30.221Z,79.15
2019-02-05T22:08:56.293Z,79.04
2019-02-05T22:11:22.319Z,78.75
2019-02-05T22:13:48.546Z,79.27
2019-02-05T22:16:14.390Z,79.27
2019-02-05T22:18:40.477Z,79.04
2019-02-05T22:21:06.765Z,79.46
2019-02-05T22:23:32.643Z,79.26
2019-02-05T22:25:58.458Z,79.41
2019-02-05T22:28:24.698Z,79.48
2019-02-05T22:30:51.148Z,79.63
2019-02-05T22:33:16.997Z,79.63
2019-02-05T22:35:42.849Z,79.67
2019-02-05T22:38:08.646Z,80.06
2019-02-05T22:40:34.751Z,80.00
2019-02-05T22:43:01.175Z,79.81
2019-02-05T22:45:30.683Z,79.71
2019-02-05T22:47:56.787Z,79.84
2019-02-05T22:50:25.556Z,79.95
2019-02-05T22:52:51.829Z,79.95
2019-02-05T22:55:17.687Z,80.15
2019-02-05T22:57:43.552Z,80.15
2019-02-05T23:00:13.312Z,79.74
2019-02-05T23:02:39.434Z,79.66
2019-02-05T23:05:09.159Z,79.26
2019-02-05T23:07:35.385Z,79.26
2019-02-05T23:10:10.658Z,79.53
2019-02-05T23:12:36.911Z,79.61
2019-02-05T23:15:10.163Z,79.42
2019-02-05T23:17:36.267Z,79.03
2019-02-05T23:20:05.904Z,78.37
2019-02-05T23:22:32.657Z,78.00
2019-02-05T23:24:58.479Z,78.00
2019-02-05T23:27:24.892Z,78.28
2019-02-05T23:29:50.770Z,78.28
2019-02-05T23:32:16.625Z,78.29
2019-02-05T23:34:42.553Z,78.39
2019-02-05T23:37:08.778Z,78.29
2019-02-05T23:39:34.997Z,78.27
2019-02-05T23:42:02.274Z,78.34
2019-02-05T23:44:28.139Z,78.26
2019-02-05T23:46:54.592Z,78.41
2019-02-05T23:49:20.766Z,78.41
2019-02-05T23:51:46.973Z,78.38
2019-02-05T23:54:12.935Z,78.40
2019-02-05T23:56:38.761Z,78.75
2019-02-05T23:59:04.864Z,77.84
